sensor_id;sensor_type;location;lat;lon;timestamp;temperature;humidity
44533;DHT22;48673;53.016;-2.258;2022-07-05T00:02:22;14.10;67.20
44533;DHT22;48673;53.016;-2.258;2022-07-05T00:04:50;14.10;67.20
44533;DHT22;48673;53.016;-2.258;2022-07-05T00:07:18;14.10;67.20
44533;DHT22;48673;53.016;-2.258;2022-07-05T00:09:46;14.10;67.30
44533;DHT22;48673;53.016;-2.258;2022-07-05T00:12:14;14.10;67.20
44533;DHT22;48673;53.016;-2.258;2022-07-05T00:14:42;14.10;67.40
44533;DHT22;48673;53.016;-2.258;2022-07-05T00:17:11;14.10;67.50
44533;DHT22;48673;53.016;-2.258;2022-07-05T00:19:39;14.10;67.60
44533;DHT22;48673;53.016;-2.258;2022-07-05T00:22:06;14.00;67.70
44533;DHT22;48673;53.016;-2.258;2022-07-05T00:24:35;14.00;67.80
44533;DHT22;48673;53.016;-2.258;2022-07-05T00:27:03;14.00;68.20
44533;DHT22;48673;53.016;-2.258;2022-07-05T00:29:30;13.90;68.30
44533;DHT22;48673;53.016;-2.258;2022-07-05T00:31:58;13.90;68.50
44533;DHT22;48673;53.016;-2.258;2022-07-05T00:34:26;13.90;68.50
44533;DHT22;48673;53.016;-2.258;2022-07-05T00:36:53;13.90;68.60
44533;DHT22;48673;53.016;-2.258;2022-07-05T00:39:21;13.90;68.70
44533;DHT22;48673;53.016;-2.258;2022-07-05T00:41:48;13.90;68.70
44533;DHT22;48673;53.016;-2.258;2022-07-05T00:44:16;13.90;68.90
44533;DHT22;48673;53.016;-2.258;2022-07-05T00:46:43;13.90;69.00
44533;DHT22;48673;53.016;-2.258;2022-07-05T00:49:11;13.80;69.10
44533;DHT22;48673;53.016;-2.258;2022-07-05T00:51:39;13.80;69.40
44533;DHT22;48673;53.016;-2.258;2022-07-05T00:54:27;13.80;69.50
44533;DHT22;48673;53.016;-2.258;2022-07-05T00:56:54;13.80;69.60
44533;DHT22;48673;53.016;-2.258;2022-07-05T00:59:28;13.80;69.60
44533;DHT22;48673;53.016;-2.258;2022-07-05T01:01:56;13.80;69.90
44533;DHT22;48673;53.016;-2.258;2022-07-05T01:04:23;13.80;70.10
44533;DHT22;48673;53.016;-2.258;2022-07-05T01:06:51;13.70;70.20
44533;DHT22;48673;53.016;-2.258;2022-07-05T01:09:20;13.70;70.30
44533;DHT22;48673;53.016;-2.258;2022-07-05T01:11:48;13.70;70.50
44533;DHT22;48673;53.016;-2.258;2022-07-05T01:14:17;13.60;70.60
44533;DHT22;48673;53.016;-2.258;2022-07-05T01:16:45;13.60;70.80
44533;DHT22;48673;53.016;-2.258;2022-07-05T01:19:13;13.50;71.00
44533;DHT22;48673;53.016;-2.258;2022-07-05T01:21:42;13.40;71.20
44533;DHT22;48673;53.016;-2.258;2022-07-05T01:24:11;13.40;71.50
44533;DHT22;48673;53.016;-2.258;2022-07-05T01:26:40;13.40;71.90
44533;DHT22;48673;53.016;-2.258;2022-07-05T01:29:08;13.40;72.20
44533;DHT22;48673;53.016;-2.258;2022-07-05T01:31:36;13.30;72.30
44533;DHT22;48673;53.016;-2.258;2022-07-05T01:34:05;13.30;72.30
44533;DHT22;48673;53.016;-2.258;2022-07-05T01:36:33;13.30;72.60
44533;DHT22;48673;53.016;-2.258;2022-07-05T01:39:02;13.20;72.70
44533;DHT22;48673;53.016;-2.258;2022-07-05T01:41:30;13.20;72.90
44533;DHT22;48673;53.016;-2.258;2022-07-05T01:43:58;13.20;73.00
44533;DHT22;48673;53.016;-2.258;2022-07-05T01:46:27;13.20;72.90
44533;DHT22;48673;53.016;-2.258;2022-07-05T01:48:56;13.20;73.10
44533;DHT22;48673;53.016;-2.258;2022-07-05T01:51:24;13.20;73.10
44533;DHT22;48673;53.016;-2.258;2022-07-05T01:53:54;13.20;73.30
44533;DHT22;48673;53.016;-2.258;2022-07-05T01:56:25;13.20;73.50
44533;DHT22;48673;53.016;-2.258;2022-07-05T01:58:55;13.30;73.80
44533;DHT22;48673;53.016;-2.258;2022-07-05T02:04:01;13.30;73.70
44533;DHT22;48673;53.016;-2.258;2022-07-05T02:06:30;13.30;74.00
44533;DHT22;48673;53.016;-2.258;2022-07-05T02:08:58;13.30;73.90
44533;DHT22;48673;53.016;-2.258;2022-07-05T02:11:26;13.30;74.00
44533;DHT22;48673;53.016;-2.258;2022-07-05T02:13:53;13.30;74.10
44533;DHT22;48673;53.016;-2.258;2022-07-05T02:16:22;13.30;74.20
44533;DHT22;48673;53.016;-2.258;2022-07-05T02:18:50;13.30;74.00
44533;DHT22;48673;53.016;-2.258;2022-07-05T02:21:18;13.30;74.00
44533;DHT22;48673;53.016;-2.258;2022-07-05T02:23:48;13.30;74.00
44533;DHT22;48673;53.016;-2.258;2022-07-05T02:26:16;13.30;74.10
44533;DHT22;48673;53.016;-2.258;2022-07-05T02:28:44;13.30;74.20
44533;DHT22;48673;53.016;-2.258;2022-07-05T02:31:13;13.30;74.20
44533;DHT22;48673;53.016;-2.258;2022-07-05T02:33:41;13.30;74.30
44533;DHT22;48673;53.016;-2.258;2022-07-05T02:36:09;13.30;74.20
44533;DHT22;48673;53.016;-2.258;2022-07-05T02:38:37;13.30;74.30
44533;DHT22;48673;53.016;-2.258;2022-07-05T02:41:09;13.20;74.40
44533;DHT22;48673;53.016;-2.258;2022-07-05T02:43:42;13.20;74.40
44533;DHT22;48673;53.016;-2.258;2022-07-05T02:46:10;13.20;74.40
44533;DHT22;48673;53.016;-2.258;2022-07-05T02:48:40;13.10;74.50
44533;DHT22;48673;53.016;-2.258;2022-07-05T02:51:08;13.10;74.50
44533;DHT22;48673;53.016;-2.258;2022-07-05T02:53:36;13.10;74.90
44533;DHT22;48673;53.016;-2.258;2022-07-05T02:56:06;13.10;75.00
44533;DHT22;48673;53.016;-2.258;2022-07-05T02:58:33;13.10;75.00
44533;DHT22;48673;53.016;-2.258;2022-07-05T03:01:03;13.10;75.10
44533;DHT22;48673;53.016;-2.258;2022-07-05T03:03:34;13.10;75.00
44533;DHT22;48673;53.016;-2.258;2022-07-05T03:06:02;13.10;75.10
44533;DHT22;48673;53.016;-2.258;2022-07-05T03:08:32;13.10;75.10
44533;DHT22;48673;53.016;-2.258;2022-07-05T03:11:00;13.10;75.00
44533;DHT22;48673;53.016;-2.258;2022-07-05T03:13:28;13.10;75.10
44533;DHT22;48673;53.016;-2.258;2022-07-05T03:15:56;13.10;75.10
44533;DHT22;48673;53.016;-2.258;2022-07-05T03:18:24;13.10;75.10
44533;DHT22;48673;53.016;-2.258;2022-07-05T03:20:52;13.00;75.10
44533;DHT22;48673;53.016;-2.258;2022-07-05T03:23:24;13.00;75.30
44533;DHT22;48673;53.016;-2.258;2022-07-05T03:25:55;13.00;75.30
44533;DHT22;48673;53.016;-2.258;2022-07-05T03:28:23;13.00;75.50
44533;DHT22;48673;53.016;-2.258;2022-07-05T03:30:53;13.00;75.60
44533;DHT22;48673;53.016;-2.258;2022-07-05T03:33:22;12.90;75.70
44533;DHT22;48673;53.016;-2.258;2022-07-05T03:35:56;12.90;75.70
44533;DHT22;48673;53.016;-2.258;2022-07-05T03:38:25;12.90;75.90
44533;DHT22;48673;53.016;-2.258;2022-07-05T03:40:52;12.90;76.00
44533;DHT22;48673;53.016;-2.258;2022-07-05T03:43:21;12.90;76.00
44533;DHT22;48673;53.016;-2.258;2022-07-05T03:45:49;12.90;76.00
44533;DHT22;48673;53.016;-2.258;2022-07-05T03:48:17;12.90;76.10
44533;DHT22;48673;53.016;-2.258;2022-07-05T03:51:04;12.90;76.30
44533;DHT22;48673;53.016;-2.258;2022-07-05T03:53:32;12.90;76.30
44533;DHT22;48673;53.016;-2.258;2022-07-05T03:56:02;12.90;76.30
44533;DHT22;48673;53.016;-2.258;2022-07-05T03:58:30;12.90;76.40
44533;DHT22;48673;53.016;-2.258;2022-07-05T04:00:59;12.90;76.30
44533;DHT22;48673;53.016;-2.258;2022-07-05T04:03:28;12.90;76.30
44533;DHT22;48673;53.016;-2.258;2022-07-05T04:05:57;12.90;76.30
44533;DHT22;48673;53.016;-2.258;2022-07-05T04:08:25;12.90;76.50
44533;DHT22;48673;53.016;-2.258;2022-07-05T04:10:52;12.90;76.50
44533;DHT22;48673;53.016;-2.258;2022-07-05T04:13:21;12.90;76.60
44533;DHT22;48673;53.016;-2.258;2022-07-05T04:15:52;12.90;76.60
44533;DHT22;48673;53.016;-2.258;2022-07-05T04:18:23;12.90;76.70
44533;DHT22;48673;53.016;-2.258;2022-07-05T04:20:52;12.90;76.80
44533;DHT22;48673;53.016;-2.258;2022-07-05T04:23:20;12.90;76.80
44533;DHT22;48673;53.016;-2.258;2022-07-05T04:25:48;12.90;76.80
44533;DHT22;48673;53.016;-2.258;2022-07-05T04:28:22;12.80;76.90
44533;DHT22;48673;53.016;-2.258;2022-07-05T04:30:53;12.70;77.00
44533;DHT22;48673;53.016;-2.258;2022-07-05T04:33:23;12.70;77.20
44533;DHT22;48673;53.016;-2.258;2022-07-05T04:35:54;12.60;77.40
44533;DHT22;48673;53.016;-2.258;2022-07-05T04:38:22;12.40;77.50
44533;DHT22;48673;53.016;-2.258;2022-07-05T04:40:50;12.40;77.60
44533;DHT22;48673;53.016;-2.258;2022-07-05T04:43:19;12.40;77.80
44533;DHT22;48673;53.016;-2.258;2022-07-05T04:45:46;12.30;78.00
44533;DHT22;48673;53.016;-2.258;2022-07-05T04:48:19;12.20;78.20
44533;DHT22;48673;53.016;-2.258;2022-07-05T04:50:46;12.20;78.50
44533;DHT22;48673;53.016;-2.258;2022-07-05T04:53:14;12.10;78.50
44533;DHT22;48673;53.016;-2.258;2022-07-05T04:55:41;12.10;78.60
44533;DHT22;48673;53.016;-2.258;2022-07-05T04:58:09;12.10;78.60
44533;DHT22;48673;53.016;-2.258;2022-07-05T05:00:36;12.10;78.70
44533;DHT22;48673;53.016;-2.258;2022-07-05T05:03:04;12.10;78.70
44533;DHT22;48673;53.016;-2.258;2022-07-05T05:05:31;12.10;78.80
44533;DHT22;48673;53.016;-2.258;2022-07-05T05:07:59;12.10;78.80
44533;DHT22;48673;53.016;-2.258;2022-07-05T05:10:26;12.00;79.00
44533;DHT22;48673;53.016;-2.258;2022-07-05T05:12:54;12.10;79.10
44533;DHT22;48673;53.016;-2.258;2022-07-05T05:15:21;12.10;79.00
44533;DHT22;48673;53.016;-2.258;2022-07-05T05:17:49;12.10;79.10
44533;DHT22;48673;53.016;-2.258;2022-07-05T05:20:16;12.10;79.20
44533;DHT22;48673;53.016;-2.258;2022-07-05T05:22:44;12.10;79.20
44533;DHT22;48673;53.016;-2.258;2022-07-05T05:25:12;12.20;79.30
44533;DHT22;48673;53.016;-2.258;2022-07-05T05:27:42;12.20;79.20
44533;DHT22;48673;53.016;-2.258;2022-07-05T05:30:15;12.20;79.10
44533;DHT22;48673;53.016;-2.258;2022-07-05T05:32:43;12.20;79.00
44533;DHT22;48673;53.016;-2.258;2022-07-05T05:35:10;12.30;78.90
44533;DHT22;48673;53.016;-2.258;2022-07-05T05:37:48;12.40;78.90
44533;DHT22;48673;53.016;-2.258;2022-07-05T05:40:16;12.40;78.80
44533;DHT22;48673;53.016;-2.258;2022-07-05T05:42:44;12.60;78.70
44533;DHT22;48673;53.016;-2.258;2022-07-05T05:45:12;12.60;78.40
44533;DHT22;48673;53.016;-2.258;2022-07-05T05:47:43;12.80;78.10
44533;DHT22;48673;53.016;-2.258;2022-07-05T05:50:11;12.90;77.80
44533;DHT22;48673;53.016;-2.258;2022-07-05T05:52:39;13.00;77.50
44533;DHT22;48673;53.016;-2.258;2022-07-05T05:55:06;13.10;77.20
44533;DHT22;48673;53.016;-2.258;2022-07-05T05:57:34;13.20;77.00
44533;DHT22;48673;53.016;-2.258;2022-07-05T06:00:04;13.30;76.80
44533;DHT22;48673;53.016;-2.258;2022-07-05T06:02:38;13.40;76.70
44533;DHT22;48673;53.016;-2.258;2022-07-05T06:05:05;13.40;76.40
44533;DHT22;48673;53.016;-2.258;2022-07-05T06:07:46;13.50;76.10
44533;DHT22;48673;53.016;-2.258;2022-07-05T06:10:15;13.50;76.00
44533;DHT22;48673;53.016;-2.258;2022-07-05T06:12:43;13.60;75.80
44533;DHT22;48673;53.016;-2.258;2022-07-05T06:15:11;13.60;75.60
44533;DHT22;48673;53.016;-2.258;2022-07-05T06:17:38;13.70;75.40
44533;DHT22;48673;53.016;-2.258;2022-07-05T06:20:07;13.80;75.30
44533;DHT22;48673;53.016;-2.258;2022-07-05T06:22:35;13.80;75.20
44533;DHT22;48673;53.016;-2.258;2022-07-05T06:25:03;13.80;75.10
44533;DHT22;48673;53.016;-2.258;2022-07-05T06:27:50;13.80;75.00
44533;DHT22;48673;53.016;-2.258;2022-07-05T06:30:18;13.90;74.80
44533;DHT22;48673;53.016;-2.258;2022-07-05T06:32:47;13.90;74.80
44533;DHT22;48673;53.016;-2.258;2022-07-05T06:35:14;14.00;75.20
44533;DHT22;48673;53.016;-2.258;2022-07-05T06:37:52;14.30;75.20
44533;DHT22;48673;53.016;-2.258;2022-07-05T06:40:21;14.50;74.30
44533;DHT22;48673;53.016;-2.258;2022-07-05T06:42:49;14.90;73.70
44533;DHT22;48673;53.016;-2.258;2022-07-05T06:45:28;15.10;72.50
44533;DHT22;48673;53.016;-2.258;2022-07-05T06:48:00;15.20;72.10
44533;DHT22;48673;53.016;-2.258;2022-07-05T06:50:28;15.40;71.90
44533;DHT22;48673;53.016;-2.258;2022-07-05T06:52:56;15.40;71.00
44533;DHT22;48673;53.016;-2.258;2022-07-05T06:55:25;15.40;70.40
44533;DHT22;48673;53.016;-2.258;2022-07-05T06:57:58;15.40;70.30
44533;DHT22;48673;53.016;-2.258;2022-07-05T07:00:42;15.40;70.20
44533;DHT22;48673;53.016;-2.258;2022-07-05T07:03:30;15.40;70.20
44533;DHT22;48673;53.016;-2.258;2022-07-05T07:06:19;15.50;70.00
44533;DHT22;48673;53.016;-2.258;2022-07-05T07:08:47;15.60;69.60
44533;DHT22;48673;53.016;-2.258;2022-07-05T07:11:32;15.60;69.50
44533;DHT22;48673;53.016;-2.258;2022-07-05T07:14:02;15.60;69.20
44533;DHT22;48673;53.016;-2.258;2022-07-05T07:16:29;15.60;69.30
44533;DHT22;48673;53.016;-2.258;2022-07-05T07:18:57;15.60;69.20
44533;DHT22;48673;53.016;-2.258;2022-07-05T07:21:41;15.50;69.30
44533;DHT22;48673;53.016;-2.258;2022-07-05T07:24:09;15.40;69.10
44533;DHT22;48673;53.016;-2.258;2022-07-05T07:26:37;15.30;69.30
44533;DHT22;48673;53.016;-2.258;2022-07-05T07:29:23;15.10;69.60
44533;DHT22;48673;53.016;-2.258;2022-07-05T07:31:51;15.00;69.90
44533;DHT22;48673;53.016;-2.258;2022-07-05T07:34:18;14.90;70.20
44533;DHT22;48673;53.016;-2.258;2022-07-05T07:36:46;14.80;70.60
44533;DHT22;48673;53.016;-2.258;2022-07-05T07:39:15;14.70;70.90
44533;DHT22;48673;53.016;-2.258;2022-07-05T07:41:42;14.70;71.10
44533;DHT22;48673;53.016;-2.258;2022-07-05T07:44:10;14.60;71.30
44533;DHT22;48673;53.016;-2.258;2022-07-05T07:46:37;14.40;71.80
44533;DHT22;48673;53.016;-2.258;2022-07-05T07:49:07;14.40;72.20
44533;DHT22;48673;53.016;-2.258;2022-07-05T07:51:34;14.30;72.60
44533;DHT22;48673;53.016;-2.258;2022-07-05T07:54:02;14.40;72.70
44533;DHT22;48673;53.016;-2.258;2022-07-05T07:56:49;14.40;73.00
44533;DHT22;48673;53.016;-2.258;2022-07-05T07:59:18;14.40;73.70
44533;DHT22;48673;53.016;-2.258;2022-07-05T08:01:49;14.30;74.10
44533;DHT22;48673;53.016;-2.258;2022-07-05T08:04:16;14.30;74.50
44533;DHT22;48673;53.016;-2.258;2022-07-05T08:06:44;14.20;75.40
44533;DHT22;48673;53.016;-2.258;2022-07-05T08:09:12;13.90;76.90
44533;DHT22;48673;53.016;-2.258;2022-07-05T08:11:44;13.60;78.20
44533;DHT22;48673;53.016;-2.258;2022-07-05T08:14:13;13.50;79.00
44533;DHT22;48673;53.016;-2.258;2022-07-05T08:16:41;13.40;80.50
44533;DHT22;48673;53.016;-2.258;2022-07-05T08:19:17;13.30;81.20
44533;DHT22;48673;53.016;-2.258;2022-07-05T08:22:03;13.20;81.80
44533;DHT22;48673;53.016;-2.258;2022-07-05T08:24:30;13.20;82.50
44533;DHT22;48673;53.016;-2.258;2022-07-05T08:26:58;13.20;82.70
44533;DHT22;48673;53.016;-2.258;2022-07-05T08:29:25;13.40;83.00
44533;DHT22;48673;53.016;-2.258;2022-07-05T08:31:53;13.50;83.20
44533;DHT22;48673;53.016;-2.258;2022-07-05T08:34:20;13.70;83.20
44533;DHT22;48673;53.016;-2.258;2022-07-05T08:36:48;13.80;83.00
44533;DHT22;48673;53.016;-2.258;2022-07-05T08:39:15;13.90;82.70
44533;DHT22;48673;53.016;-2.258;2022-07-05T08:41:43;13.90;82.70
44533;DHT22;48673;53.016;-2.258;2022-07-05T08:44:19;13.90;82.50
44533;DHT22;48673;53.016;-2.258;2022-07-05T08:46:47;14.00;82.40
44533;DHT22;48673;53.016;-2.258;2022-07-05T08:49:15;14.10;82.40
44533;DHT22;48673;53.016;-2.258;2022-07-05T08:51:47;14.20;82.20
44533;DHT22;48673;53.016;-2.258;2022-07-05T08:54:15;14.30;82.00
44533;DHT22;48673;53.016;-2.258;2022-07-05T08:56:44;14.30;81.80
44533;DHT22;48673;53.016;-2.258;2022-07-05T08:59:31;14.40;81.90
44533;DHT22;48673;53.016;-2.258;2022-07-05T09:01:59;14.50;81.60
44533;DHT22;48673;53.016;-2.258;2022-07-05T09:04:29;14.50;81.50
44533;DHT22;48673;53.016;-2.258;2022-07-05T09:06:57;14.70;81.40
44533;DHT22;48673;53.016;-2.258;2022-07-05T09:09:26;14.70;80.90
44533;DHT22;48673;53.016;-2.258;2022-07-05T09:11:55;14.80;80.60
44533;DHT22;48673;53.016;-2.258;2022-07-05T09:14:44;14.90;80.70
44533;DHT22;48673;53.016;-2.258;2022-07-05T09:17:12;14.90;80.50
44533;DHT22;48673;53.016;-2.258;2022-07-05T09:19:41;15.10;80.50
44533;DHT22;48673;53.016;-2.258;2022-07-05T09:22:08;15.30;79.90
44533;DHT22;48673;53.016;-2.258;2022-07-05T09:24:43;15.40;79.50
44533;DHT22;48673;53.016;-2.258;2022-07-05T09:27:12;15.40;78.70
44533;DHT22;48673;53.016;-2.258;2022-07-05T09:29:56;15.50;78.40
44533;DHT22;48673;53.016;-2.258;2022-07-05T09:32:29;15.60;78.80
44533;DHT22;48673;53.016;-2.258;2022-07-05T09:37:43;16.00;78.00
44533;DHT22;48673;53.016;-2.258;2022-07-05T09:40:11;16.40;77.10
44533;DHT22;48673;53.016;-2.258;2022-07-05T09:42:46;16.50;76.10
44533;DHT22;48673;53.016;-2.258;2022-07-05T09:45:24;16.60;75.40
44533;DHT22;48673;53.016;-2.258;2022-07-05T09:47:55;16.40;74.40
44533;DHT22;48673;53.016;-2.258;2022-07-05T09:50:43;16.30;74.90
44533;DHT22;48673;53.016;-2.258;2022-07-05T09:53:43;16.30;75.30
44533;DHT22;48673;53.016;-2.258;2022-07-05T09:56:12;16.20;75.30
44533;DHT22;48673;53.016;-2.258;2022-07-05T09:58:41;16.20;75.50
44533;DHT22;48673;53.016;-2.258;2022-07-05T10:01:25;16.20;75.60
44533;DHT22;48673;53.016;-2.258;2022-07-05T10:03:53;16.10;75.60
44533;DHT22;48673;53.016;-2.258;2022-07-05T10:06:25;16.20;75.70
44533;DHT22;48673;53.016;-2.258;2022-07-05T10:08:53;16.20;75.80
44533;DHT22;48673;53.016;-2.258;2022-07-05T10:11:21;16.10;75.70
44533;DHT22;48673;53.016;-2.258;2022-07-05T10:13:55;16.10;75.90
44533;DHT22;48673;53.016;-2.258;2022-07-05T10:16:23;16.00;76.30
44533;DHT22;48673;53.016;-2.258;2022-07-05T10:18:51;15.90;76.70
44533;DHT22;48673;53.016;-2.258;2022-07-05T10:21:21;15.60;77.40
44533;DHT22;48673;53.016;-2.258;2022-07-05T10:23:51;15.40;78.20
44533;DHT22;48673;53.016;-2.258;2022-07-05T10:26:24;15.20;78.90
44533;DHT22;48673;53.016;-2.258;2022-07-05T10:28:52;14.90;79.60
44533;DHT22;48673;53.016;-2.258;2022-07-05T10:31:28;14.90;80.30
44533;DHT22;48673;53.016;-2.258;2022-07-05T10:33:57;14.90;81.00
44533;DHT22;48673;53.016;-2.258;2022-07-05T10:36:28;14.90;81.60
44533;DHT22;48673;53.016;-2.258;2022-07-05T10:38:56;15.20;81.80
44533;DHT22;48673;53.016;-2.258;2022-07-05T10:41:25;15.40;81.70
44533;DHT22;48673;53.016;-2.258;2022-07-05T10:43:53;15.50;81.80
44533;DHT22;48673;53.016;-2.258;2022-07-05T10:46:35;15.70;81.80
44533;DHT22;48673;53.016;-2.258;2022-07-05T10:49:11;15.90;82.20
44533;DHT22;48673;53.016;-2.258;2022-07-05T10:51:40;16.00;82.00
44533;DHT22;48673;53.016;-2.258;2022-07-05T10:54:07;16.20;81.90
44533;DHT22;48673;53.016;-2.258;2022-07-05T10:56:35;16.40;81.80
44533;DHT22;48673;53.016;-2.258;2022-07-05T10:59:04;16.50;81.40
44533;DHT22;48673;53.016;-2.258;2022-07-05T11:01:34;16.70;81.00
44533;DHT22;48673;53.016;-2.258;2022-07-05T11:11:41;16.70;78.80
44533;DHT22;48673;53.016;-2.258;2022-07-05T11:14:29;16.40;78.80
44533;DHT22;48673;53.016;-2.258;2022-07-05T11:19:58;15.90;80.30
44533;DHT22;48673;53.016;-2.258;2022-07-05T11:22:26;15.60;81.70
44533;DHT22;48673;53.016;-2.258;2022-07-05T11:24:54;15.70;82.60
44533;DHT22;48673;53.016;-2.258;2022-07-05T11:27:22;15.90;83.00
44533;DHT22;48673;53.016;-2.258;2022-07-05T11:29:54;16.00;82.90
44533;DHT22;48673;53.016;-2.258;2022-07-05T11:32:22;16.00;82.50
44533;DHT22;48673;53.016;-2.258;2022-07-05T11:34:50;15.90;82.50
44533;DHT22;48673;53.016;-2.258;2022-07-05T11:37:28;15.90;82.20
44533;DHT22;48673;53.016;-2.258;2022-07-05T11:42:49;16.10;82.10
44533;DHT22;48673;53.016;-2.258;2022-07-05T11:45:17;16.20;82.00
44533;DHT22;48673;53.016;-2.258;2022-07-05T11:47:44;16.20;81.80
44533;DHT22;48673;53.016;-2.258;2022-07-05T11:50:12;16.20;81.00
44533;DHT22;48673;53.016;-2.258;2022-07-05T11:52:40;16.10;80.20
44533;DHT22;48673;53.016;-2.258;2022-07-05T11:55:08;16.30;80.00
44533;DHT22;48673;53.016;-2.258;2022-07-05T11:57:37;16.40;79.40
44533;DHT22;48673;53.016;-2.258;2022-07-05T12:00:05;16.40;78.60
44533;DHT22;48673;53.016;-2.258;2022-07-05T12:02:45;16.60;77.80
44533;DHT22;48673;53.016;-2.258;2022-07-05T12:05:15;16.80;77.00
44533;DHT22;48673;53.016;-2.258;2022-07-05T12:07:48;17.00;76.80
44533;DHT22;48673;53.016;-2.258;2022-07-05T12:10:16;17.40;75.10
44533;DHT22;48673;53.016;-2.258;2022-07-05T12:13:23;17.60;74.20
44533;DHT22;48673;53.016;-2.258;2022-07-05T12:15:52;17.90;74.40
44533;DHT22;48673;53.016;-2.258;2022-07-05T12:18:27;18.00;72.40
44533;DHT22;48673;53.016;-2.258;2022-07-05T12:20:55;18.20;72.10
44533;DHT22;48673;53.016;-2.258;2022-07-05T12:23:26;18.30;71.90
44533;DHT22;48673;53.016;-2.258;2022-07-05T12:25:54;18.50;71.40
44533;DHT22;48673;53.016;-2.258;2022-07-05T12:28:25;18.50;68.60
44533;DHT22;48673;53.016;-2.258;2022-07-05T12:30:52;18.40;68.00
44533;DHT22;48673;53.016;-2.258;2022-07-05T12:33:23;18.60;67.30
44533;DHT22;48673;53.016;-2.258;2022-07-05T12:35:51;18.90;65.90
44533;DHT22;48673;53.016;-2.258;2022-07-05T12:38:20;19.10;63.90
44533;DHT22;48673;53.016;-2.258;2022-07-05T12:40:48;19.20;63.60
44533;DHT22;48673;53.016;-2.258;2022-07-05T12:43:16;19.10;62.40
44533;DHT22;48673;53.016;-2.258;2022-07-05T12:48:32;18.90;61.90
44533;DHT22;48673;53.016;-2.258;2022-07-05T12:51:00;19.00;61.20
44533;DHT22;48673;53.016;-2.258;2022-07-05T12:53:46;18.90;61.50
44533;DHT22;48673;53.016;-2.258;2022-07-05T12:56:33;18.90;62.20
44533;DHT22;48673;53.016;-2.258;2022-07-05T13:00:03;19.30;61.60
44533;DHT22;48673;53.016;-2.258;2022-07-05T13:02:39;20.00;59.20
44533;DHT22;48673;53.016;-2.258;2022-07-05T13:05:09;20.00;58.70
44533;DHT22;48673;53.016;-2.258;2022-07-05T13:07:41;20.00;57.40
44533;DHT22;48673;53.016;-2.258;2022-07-05T13:10:13;20.40;56.00
44533;DHT22;48673;53.016;-2.258;2022-07-05T13:12:42;20.80;55.50
44533;DHT22;48673;53.016;-2.258;2022-07-05T13:15:11;20.90;54.40
44533;DHT22;48673;53.016;-2.258;2022-07-05T13:17:40;20.90;53.10
44533;DHT22;48673;53.016;-2.258;2022-07-05T13:20:09;20.90;53.10
44533;DHT22;48673;53.016;-2.258;2022-07-05T13:22:37;20.90;52.10
44533;DHT22;48673;53.016;-2.258;2022-07-05T13:25:05;21.00;51.60
44533;DHT22;48673;53.016;-2.258;2022-07-05T13:27:33;21.20;51.20
44533;DHT22;48673;53.016;-2.258;2022-07-05T13:30:03;21.10;51.60
44533;DHT22;48673;53.016;-2.258;2022-07-05T13:32:30;21.00;51.10
44533;DHT22;48673;53.016;-2.258;2022-07-05T13:35:01;21.40;51.40
44533;DHT22;48673;53.016;-2.258;2022-07-05T13:37:29;22.10;51.20
44533;DHT22;48673;53.016;-2.258;2022-07-05T13:39:59;22.60;49.10
44533;DHT22;48673;53.016;-2.258;2022-07-05T13:42:27;22.60;48.30
44533;DHT22;48673;53.016;-2.258;2022-07-05T13:44:55;22.80;47.50
44533;DHT22;48673;53.016;-2.258;2022-07-05T13:47:22;22.80;47.10
44533;DHT22;48673;53.016;-2.258;2022-07-05T13:49:50;22.40;47.10
44533;DHT22;48673;53.016;-2.258;2022-07-05T13:52:37;22.40;45.80
44533;DHT22;48673;53.016;-2.258;2022-07-05T13:55:05;22.20;47.20
44533;DHT22;48673;53.016;-2.258;2022-07-05T13:57:34;21.70;47.30
44533;DHT22;48673;53.016;-2.258;2022-07-05T14:00:02;21.40;48.00
44533;DHT22;48673;53.016;-2.258;2022-07-05T14:02:31;21.10;48.10
44533;DHT22;48673;53.016;-2.258;2022-07-05T14:04:59;20.70;49.10
44533;DHT22;48673;53.016;-2.258;2022-07-05T14:07:27;20.40;50.00
44533;DHT22;48673;53.016;-2.258;2022-07-05T14:09:55;20.20;50.80
44533;DHT22;48673;53.016;-2.258;2022-07-05T14:12:22;21.00;50.00
44533;DHT22;48673;53.016;-2.258;2022-07-05T14:14:50;21.80;48.10
44533;DHT22;48673;53.016;-2.258;2022-07-05T14:17:17;22.10;46.30
44533;DHT22;48673;53.016;-2.258;2022-07-05T14:19:45;22.50;46.30
44533;DHT22;48673;53.016;-2.258;2022-07-05T14:22:13;22.60;45.30
44533;DHT22;48673;53.016;-2.258;2022-07-05T14:24:42;22.00;46.00
44533;DHT22;48673;53.016;-2.258;2022-07-05T14:27:09;21.40;46.90
44533;DHT22;48673;53.016;-2.258;2022-07-05T14:29:37;20.90;47.80
44533;DHT22;48673;53.016;-2.258;2022-07-05T14:32:06;20.60;48.20
44533;DHT22;48673;53.016;-2.258;2022-07-05T14:34:34;20.40;49.50
44533;DHT22;48673;53.016;-2.258;2022-07-05T14:37:02;20.40;50.20
44533;DHT22;48673;53.016;-2.258;2022-07-05T14:39:30;20.10;50.60
44533;DHT22;48673;53.016;-2.258;2022-07-05T14:41:57;20.00;51.10
44533;DHT22;48673;53.016;-2.258;2022-07-05T14:44:24;19.90;51.40
44533;DHT22;48673;53.016;-2.258;2022-07-05T14:46:52;20.00;51.60
44533;DHT22;48673;53.016;-2.258;2022-07-05T14:49:19;20.00;51.40
44533;DHT22;48673;53.016;-2.258;2022-07-05T14:51:47;20.10;51.40
44533;DHT22;48673;53.016;-2.258;2022-07-05T14:54:17;20.00;51.50
44533;DHT22;48673;53.016;-2.258;2022-07-05T14:56:45;20.40;51.30
44533;DHT22;48673;53.016;-2.258;2022-07-05T14:59:12;21.20;50.00
44533;DHT22;48673;53.016;-2.258;2022-07-05T15:01:40;22.00;48.10
44533;DHT22;48673;53.016;-2.258;2022-07-05T15:04:08;22.80;46.90
44533;DHT22;48673;53.016;-2.258;2022-07-05T15:06:35;23.60;44.60
44533;DHT22;48673;53.016;-2.258;2022-07-05T15:09:02;24.00;43.10
44533;DHT22;48673;53.016;-2.258;2022-07-05T15:11:30;24.10;42.40
44533;DHT22;48673;53.016;-2.258;2022-07-05T15:13:57;24.20;42.20
44533;DHT22;48673;53.016;-2.258;2022-07-05T15:16:27;23.90;41.50
44533;DHT22;48673;53.016;-2.258;2022-07-05T15:18:55;23.90;41.90
44533;DHT22;48673;53.016;-2.258;2022-07-05T15:21:23;24.10;41.60
44533;DHT22;48673;53.016;-2.258;2022-07-05T15:23:50;24.20;41.60
44533;DHT22;48673;53.016;-2.258;2022-07-05T15:26:39;24.30;41.30
44533;DHT22;48673;53.016;-2.258;2022-07-05T15:29:07;23.90;41.80
44533;DHT22;48673;53.016;-2.258;2022-07-05T15:31:35;23.30;42.50
44533;DHT22;48673;53.016;-2.258;2022-07-05T15:34:04;22.60;43.60
44533;DHT22;48673;53.016;-2.258;2022-07-05T15:36:31;22.40;44.50
44533;DHT22;48673;53.016;-2.258;2022-07-05T15:39:00;22.40;44.50
44533;DHT22;48673;53.016;-2.258;2022-07-05T15:41:29;22.70;43.60
44533;DHT22;48673;53.016;-2.258;2022-07-05T15:43:57;22.60;42.90
44533;DHT22;48673;53.016;-2.258;2022-07-05T15:46:28;22.50;43.10
44533;DHT22;48673;53.016;-2.258;2022-07-05T15:49:21;22.50;43.40
44533;DHT22;48673;53.016;-2.258;2022-07-05T15:51:49;22.40;44.30
44533;DHT22;48673;53.016;-2.258;2022-07-05T15:54:16;22.90;43.90
44533;DHT22;48673;53.016;-2.258;2022-07-05T15:56:44;23.10;43.00